This is the latest recevied weather packets stored in our database for station/object K7JGC-9. If no packets are shown the sender has not sent any weather packets the latest 10 day(s).
| Time | Temp. | Humidity | Pressure | Rain* | Wind** | Luminosity | Snow |
|---|---|---|---|---|---|---|---|
| 1777942197 | 23.33° C | 62% | 1011 hPa | 0 mm | - | 35 W/m² | - |
| 1777940396 | 23.33° C | 59% | 1011 hPa | 0 mm | - | 75 W/m² | - |
| 1777938596 | 23.33° C | 59% | 1011.2 hPa | 0 mm | - | 29 W/m² | - |
| 1777936794 | 22.78° C | 60% | 1011.2 hPa | 0 mm | - | 30 W/m² | - |
| 1777934993 | 22.78° C | 59% | 1011.7 hPa | 0 mm | - | 32 W/m² | - |
| 1777933192 | 22.22° C | 57% | 1012 hPa | 0 mm | - | 34 W/m² | - |
| 1777931390 | 22.22° C | 58% | 1012.4 hPa | 0 mm | - | 35 W/m² | - |
| 1777929588 | 22.22° C | 61% | 1012.6 hPa | 0 mm | - | 40 W/m² | - |
| 1777927782 | 21.67° C | 62% | 1013.3 hPa | 0 mm | - | 44 W/m² | - |
| 1777925977 | 20.56° C | 68% | 1013.6 hPa | 0 mm | - | 40 W/m² | - |
| 1777924176 | 18.89° C | 71% | 1013.8 hPa | 0 mm | - | 44 W/m² | - |
| 1777922371 | 17.22° C | 74% | 1014.4 hPa | 0 mm | - | 417 W/m² | - |
| 1777920567 | 17.22° C | 71% | 1014.3 hPa | 0 mm | - | 105 W/m² | - |
| 1777918766 | 16.67° C | 73% | 1014.3 hPa | 0 mm | - | 178 W/m² | - |
| 1777916964 | 15.56° C | 78% | 1014.4 hPa | 0 mm | - | 150 W/m² | - |
| 1777915162 | 15° C | 80% | 1014.5 hPa | 0 mm | - | 103 W/m² | - |
| 1777913360 | 15° C | 80% | 1014.1 hPa | 0 mm | - | 79 W/m² | - |
| 1777911556 | 15° C | 80% | 1014.1 hPa | 0 mm | - | 91 W/m² | - |
| 1777909755 | 13.89° C | 82% | 1014.2 hPa | 0 mm | - | 70 W/m² | - |
| 1777907955 | 13.33° C | 83% | 1014 hPa | 0 mm | - | 63 W/m² | - |
| 1777906151 | 13.33° C | 84% | 1013.7 hPa | 0 mm | - | 19 W/m² | - |
| 1777904350 | 12.78° C | 84% | 1013.3 hPa | 0 mm | - | 16 W/m² | - |
| 1777902548 | 12.78° C | 84% | 1012.6 hPa | 0 mm | - | 11 W/m² | - |
| 1777900744 | 13.33° C | 83% | 1012.1 hPa | 0 mm | - | 5 W/m² | - |
| 1777898943 | 13.89° C | 81% | 1011.5 hPa | 0 mm | - | 1 W/m² | - |
* Rain latest hour (hover to see other rain measurements)
** Current wind speed in m/s (hover to see current wind gust speed)